To NAV CANADA Home Page Login to a new session Search on AWWS site Feedback and Comments Disclaimer Vers la page française équivalente Tips FAQ What's new on the site To the Forecasts and Observations / NOTAM section To "File a Flight Plan" website Publications and other links Update of the User's profile FIC Telephone Numbers My Weather Data Folder Route Weather Data Regional Weather Data Local Weather Data To the Forecasts and Observations / NOTAM section
Request Generated 03/23/2017 at 00:10:42 UTC . Weather information available at that time is displayed.

METAR/TAF

BAKER LAKE/NU    

METAR CYBK 230000Z 29003KT 25SM FEW110 FEW230 M24/M27 A3005 RMK
AC1CI1 CI TR SLP182=
METAR CYBK 222300Z VRB03KT 25SM SCT100 BKN230 M22/M26 A3007 RMK
AC4CI3 SLP186=
METAR CYBK 222200Z VRB02KT 25SM BKN095 BKN230 M22/M27 A3008 RMK
AC7CI1 CI TR SLP190=

TAF CYBK 222341Z 2300/2312 VRB03KT P6SM BKN100
BECMG 2302/2304 30012KT
RMK NXT FCST BY 230600Z=
Your time UTC time
Weather data provided by Environment Canada and NAV CANADA